Trophy Club, TX

1:32 PM CDT on May 06, 2015 (GMT -0500)
Trophy Club, TX | | Change Station
CLOSE
Current Station
Personal Weather Station
Location: Roanoke, TX
Elevation: 579 ft
Nearby Weather Stations

Elev 579 ft 33.00 °N, 97.20 °W | Updated 2 minutes ago

Overcast
Overcast
79.4 °F
Feels Like 82 °F
N
2.0
Wind Variable Wind from SW
Gusts 3.0 mph

Today
High -- | Low -- °F
--% Chance of Precip.
Yesterday
High -- | Low -- °F
Precip. -- in
6:36 AM 8:14 PM
Waning Gibbous, 93% visible
Pressure 29.92 in
Visibility 10.0 miles
Clouds Scattered Clouds 2000 ft
Mostly Cloudy 2500 ft
Overcast 3000 ft
Heat Index 82 °F
Dew Point 71 °F
Humidity 75%
Rainfall 0.15 in
Snow Depth Not available.
UV 0.0 out of 12
Pollen 4.20 out of 12
Air Quality Not available.
Flu Activity Sporadic
METAR KAFW 061653Z 16009KT 10SM SCT020 BKN025 OVC030 23/20 A2995 RMK AO2 SLP130 T02330200

More Conditions Fewer Conditions

Pressure 29.92 in
Visibility 10.0 miles
Clouds Scattered Clouds 2000 ft
Mostly Cloudy 2500 ft
Overcast 3000 ft
Heat Index 82 °F
Dew Point 71 °F
Humidity 75%
Rainfall 0.15 in
Snow Depth Not available.
UV 0.0 out of 12
Pollen 4.20 out of 12
Air Quality Not available.
Flu Activity Sporadic
METAR KAFW 061653Z 16009KT 10SM SCT020 BKN025 OVC030 23/20 A2995 RMK AO2 SLP130 T02330200

More Conditions Fewer Conditions

The Storm Prediction Center has issued an enhanced risk of severe weather for parts of central Texas, Oklahoma, Kansas, and southern Nebraska. Severe thunderstorms could form strong tornadoes, large hail, heavy rain, and strong wind into the evening. An area of slight risk of severe weather encompasses this enhanced area.

10-Day Weather Forecast

Almanac

Astronomy

May. 06, 2015 Rise Set
Actual Time
Civil Twilight
Nautical Twilight
Astronomical Twilight
Moon
Length of Visible Light
Length of Day
Tomorrow will be .
, % of the Moon is Illuminated

Today's Extremes

State Highs State Lows

Community

WunderPhotos

Upload Photos

1,818,978 photos uploaded!

WunderBlogs® & News

Nearby

Air Quality

  Air Quality AQ Index Pollutant
Not available.

Snow Depth

Station Depth Elevation

Earthquake Activity

City Distance Mag. Time & Date
Minimum magnitude displayed is 2.5.

Coastal Water Temperatures

Place Temperature

Stations

Nearby Weather Stations

Station Location Temp. Windchill Dew Point Humidity Wind Precip. Elev Updated Type